Time;durP1;ratioP1;P1;durP2;ratioP2;P2;SDS_P1;SDS_P2;PMS_P1;PMS_P2;Temp;Humidity;BMP_temperature;BMP_pressure;BME280_temperature;BME280_humidity;BME280_pressure;Samples;Min_cycle;Max_cycle;Signal;HPM_P1;HPM_P2
2023/07/09 00:00:41;;;;;;;;;;;24.90;40.00;;;;;;1503081;77;764;-58
2023/07/09 00:02:43;;;;;;;;;;;24.80;40.00;;;;;;1493109;77;697;-58
2023/07/09 00:04:45;;;;;;;;;;;25.00;40.00;;;;;;1503647;77;585;-58
2023/07/09 00:06:46;;;;;;;;;;;24.90;40.00;;;;;;1508338;77;795;-57
2023/07/09 00:08:48;;;;;;;;;;;24.90;40.00;;;;;;1504935;77;1189;-57
2023/07/09 00:10:50;;;;;;;;;;;24.90;40.00;;;;;;1507610;77;729;-58
2023/07/09 00:12:52;;;;;;;;;;;24.90;40.00;;;;;;1506283;77;1513;-58
2023/07/09 00:14:54;;;;;;;;;;;24.90;40.00;;;;;;1514884;77;739;-58
2023/07/09 00:16:56;;;;;;;;;;;24.90;40.00;;;;;;1507015;77;882;-57
2023/07/09 00:18:58;;;;;;;;;;;24.90;40.00;;;;;;1507216;77;1941;-58
2023/07/09 00:21:01;;;;;;;;;;;25.00;40.00;;;;;;1491062;78;722;-57
2023/07/09 00:23:04;;;;;;;;;;;24.90;40.10;;;;;;1479714;78;612;-58
2023/07/09 00:25:07;;;;;;;;;;;24.90;40.10;;;;;;1495812;78;733;-58
2023/07/09 00:27:09;;;;;;;;;;;25.00;40.10;;;;;;1473239;78;1533;-59
2023/07/09 00:29:11;;;;;;;;;;;24.90;40.00;;;;;;1509187;77;1156;-58
2023/07/09 00:31:16;;;;;;;;;;;24.90;40.00;;;;;;1503502;77;753;-58
2023/07/09 00:33:21;;;;;;;;;;;25.00;40.00;;;;;;1507510;77;637;-58
2023/07/09 00:35:23;;;;;;;;;;;24.90;40.00;;;;;;1501122;77;917;-57
2023/07/09 00:37:27;;;;;;;;;;;25.00;40.00;;;;;;1514452;77;769;-57
2023/07/09 00:39:29;;;;;;;;;;;24.90;40.10;;;;;;1508547;77;1923;-58
2023/07/09 00:41:33;;;;;;;;;;;25.00;40.10;;;;;;1476789;78;1573;-58
2023/07/09 00:43:35;;;;;;;;;;;25.00;40.10;;;;;;1507909;77;1675;-58
2023/07/09 00:45:38;;;;;;;;;;;24.90;40.10;;;;;;1493196;77;714;-57
2023/07/09 00:47:42;;;;;;;;;;;25.00;40.10;;;;;;1488617;78;787;-58
2023/07/09 00:49:46;;;;;;;;;;;24.90;40.10;;;;;;1499623;78;1508;-59
2023/07/09 00:51:47;;;;;;;;;;;25.00;40.10;;;;;;1492798;79;1365;-58
2023/07/09 00:53:49;;;;;;;;;;;24.90;40.10;;;;;;1499054;78;796;-58
2023/07/09 00:55:56;;;;;;;;;;;24.90;40.10;;;;;;1507966;77;1527;-59
2023/07/09 00:57:59;;;;;;;;;;;24.90;40.20;;;;;;1497448;77;1771;-58
2023/07/09 01:00:09;;;;;;;;;;;25.00;40.20;;;;;;1507550;77;1951;-58
2023/07/09 01:02:07;;;;;;;;;;;24.90;40.20;;;;;;1505178;77;1639;-58
2023/07/09 01:04:09;;;;;;;;;;;24.90;40.10;;;;;;1488857;77;646;-58
2023/07/09 01:06:12;;;;;;;;;;;24.90;40.20;;;;;;1495511;77;751;-57
2023/07/09 01:08:14;;;;;;;;;;;24.90;40.10;;;;;;1509245;77;1184;-58
2023/07/09 01:10:16;;;;;;;;;;;24.90;40.10;;;;;;1505168;77;1675;-58
2023/07/09 01:12:19;;;;;;;;;;;25.00;40.20;;;;;;1465019;78;1113;-59
2023/07/09 01:14:21;;;;;;;;;;;24.90;40.10;;;;;;1472517;79;812;-58
2023/07/09 01:16:25;;;;;;;;;;;25.00;40.20;;;;;;1488938;78;711;-58
2023/07/09 01:18:27;;;;;;;;;;;24.90;40.10;;;;;;1498549;78;1944;-58
2023/07/09 01:20:29;;;;;;;;;;;24.90;40.10;;;;;;1472279;78;702;-58
2023/07/09 01:22:30;;;;;;;;;;;24.90;40.10;;;;;;1497869;79;736;-58
2023/07/09 01:24:49;;;;;;;;;;;24.90;40.20;;;;;;1494264;79;1770;-58
2023/07/09 01:26:50;;;;;;;;;;;25.00;40.10;;;;;;1506062;77;781;-59
2023/07/09 01:28:54;;;;;;;;;;;24.80;40.10;;;;;;1508971;77;1124;-58
2023/07/09 01:30:56;;;;;;;;;;;25.00;40.20;;;;;;1507511;77;1565;-59
2023/07/09 01:32:58;;;;;;;;;;;24.90;40.20;;;;;;1502926;77;778;-58
2023/07/09 01:35:04;;;;;;;;;;;24.90;40.20;;;;;;1504647;77;696;-58
2023/07/09 01:37:05;;;;;;;;;;;24.90;40.20;;;;;;1484647;78;1951;-58
2023/07/09 01:39:08;;;;;;;;;;;25.00;40.20;;;;;;1509889;77;1953;-58
2023/07/09 01:41:13;;;;;;;;;;;24.80;40.10;;;;;;1492306;78;726;-58
2023/07/09 01:43:13;;;;;;;;;;;24.90;40.20;;;;;;1490754;78;1668;-58
2023/07/09 01:45:16;;;;;;;;;;;24.90;40.20;;;;;;1512085;77;779;-58
2023/07/09 01:47:18;;;;;;;;;;;24.90;40.20;;;;;;1483950;78;812;-57
2023/07/09 01:49:20;;;;;;;;;;;24.90;40.20;;;;;;1502880;77;1176;-58
2023/07/09 01:51:24;;;;;;;;;;;24.90;40.20;;;;;;1477712;80;1322;-58
2023/07/09 01:53:26;;;;;;;;;;;24.90;40.20;;;;;;1486631;78;801;-58
2023/07/09 01:55:28;;;;;;;;;;;24.90;40.20;;;;;;1475420;78;678;-58
2023/07/09 01:57:40;;;;;;;;;;;24.80;40.20;;;;;;1482436;78;792;-59
2023/07/09 01:59:37;;;;;;;;;;;24.90;40.20;;;;;;1473026;78;1951;-59
2023/07/09 02:01:38;;;;;;;;;;;24.90;40.30;;;;;;1503929;78;1673;-58
2023/07/09 02:03:40;;;;;;;;;;;24.80;40.20;;;;;;1476865;78;712;-57
2023/07/09 02:05:41;;;;;;;;;;;24.90;40.20;;;;;;1477203;79;1508;-58
2023/07/09 02:07:43;;;;;;;;;;;24.80;40.20;;;;;;1480841;78;771;-58
2023/07/09 02:09:45;;;;;;;;;;;24.90;40.20;;;;;;1509103;77;1184;-58
2023/07/09 02:11:47;;;;;;;;;;;24.90;40.20;;;;;;1506761;77;700;-58
2023/07/09 02:13:49;;;;;;;;;;;24.90;40.20;;;;;;1506941;77;720;-58
2023/07/09 02:15:51;;;;;;;;;;;24.90;40.20;;;;;;1513156;77;778;-57
2023/07/09 02:17:53;;;;;;;;;;;24.90;40.20;;;;;;1505071;77;700;-58
2023/07/09 02:19:54;;;;;;;;;;;24.90;40.30;;;;;;1502394;77;1940;-59
2023/07/09 02:21:57;;;;;;;;;;;24.90;40.20;;;;;;1476289;78;712;-59
2023/07/09 02:23:58;;;;;;;;;;;24.90;40.20;;;;;;1491358;78;739;-59
2023/07/09 02:26:00;;;;;;;;;;;25.00;40.20;;;;;;1484325;78;721;-59
2023/07/09 02:28:02;;;;;;;;;;;24.90;40.20;;;;;;1506722;77;787;-59
2023/07/09 02:30:06;;;;;;;;;;;24.90;40.20;;;;;;1505968;77;1054;-59
2023/07/09 02:32:08;;;;;;;;;;;24.90;40.20;;;;;;1484413;78;1169;-59
2023/07/09 02:34:10;;;;;;;;;;;24.90;40.30;;;;;;1506014;77;1568;-59
2023/07/09 02:36:12;;;;;;;;;;;25.00;40.30;;;;;;1509306;77;713;-59
2023/07/09 02:38:14;;;;;;;;;;;24.90;40.30;;;;;;1496212;77;1169;-60
2023/07/09 02:40:16;;;;;;;;;;;25.00;40.30;;;;;;1512842;77;1935;-59
2023/07/09 02:42:19;;;;;;;;;;;25.00;40.30;;;;;;1477949;78;748;-59
2023/07/09 02:44:21;;;;;;;;;;;24.90;40.30;;;;;;1501645;78;735;-58
2023/07/09 02:46:22;;;;;;;;;;;24.90;40.30;;;;;;1507396;77;781;-60
2023/07/09 02:48:24;;;;;;;;;;;24.90;40.30;;;;;;1500746;77;1427;-59
2023/07/09 02:50:26;;;;;;;;;;;24.90;40.30;;;;;;1470943;78;807;-59
2023/07/09 02:52:28;;;;;;;;;;;24.90;40.30;;;;;;1468474;78;708;-59
2023/07/09 02:54:30;;;;;;;;;;;24.90;40.30;;;;;;1507688;78;809;-59
2023/07/09 02:56:32;;;;;;;;;;;24.90;40.20;;;;;;1508585;77;775;-59
2023/07/09 02:58:34;;;;;;;;;;;24.90;40.30;;;;;;1507017;77;1172;-59
2023/07/09 03:00:35;;;;;;;;;;;24.90;40.20;;;;;;1505380;78;1937;-59
2023/07/09 03:02:37;;;;;;;;;;;24.90;40.20;;;;;;1500878;77;1533;-59
2023/07/09 03:04:39;;;;;;;;;;;25.00;40.30;;;;;;1478036;78;766;-59
2023/07/09 03:06:41;;;;;;;;;;;24.90;40.30;;;;;;1491547;78;674;-59
2023/07/09 03:08:43;;;;;;;;;;;24.90;40.20;;;;;;1484049;78;1179;-58
2023/07/09 03:10:45;;;;;;;;;;;24.90;40.30;;;;;;1510187;77;756;-59
2023/07/09 03:12:47;;;;;;;;;;;24.90;40.30;;;;;;1511415;77;775;-59
2023/07/09 03:14:49;;;;;;;;;;;24.80;40.20;;;;;;1507965;78;720;-58
2023/07/09 03:16:51;;;;;;;;;;;24.90;40.30;;;;;;1500001;78;1504;-60
2023/07/09 03:18:54;;;;;;;;;;;24.90;40.20;;;;;;1497151;78;1145;-59
2023/07/09 03:20:56;;;;;;;;;;;24.90;40.30;;;;;;1494985;78;1906;-59
2023/07/09 03:22:57;;;;;;;;;;;24.90;40.30;;;;;;1500278;77;730;-58
2023/07/09 03:24:59;;;;;;;;;;;24.90;40.30;;;;;;1481195;79;863;-59
2023/07/09 03:27:01;;;;;;;;;;;24.90;40.30;;;;;;1482149;79;739;-61
2023/07/09 03:29:03;;;;;;;;;;;24.90;40.30;;;;;;1472037;79;1143;-59
2023/07/09 03:31:05;;;;;;;;;;;24.80;40.30;;;;;;1501537;77;1452;-58
2023/07/09 03:33:07;;;;;;;;;;;24.90;40.30;;;;;;1480167;78;740;-59
2023/07/09 03:35:09;;;;;;;;;;;24.90;40.30;;;;;;1506691;77;731;-59
2023/07/09 03:37:10;;;;;;;;;;;24.90;40.30;;;;;;1505176;77;570;-59
2023/07/09 03:39:12;;;;;;;;;;;24.80;40.20;;;;;;1478017;80;1147;-59
2023/07/09 03:41:14;;;;;;;;;;;24.90;40.40;;;;;;1502870;77;1950;-59
2023/07/09 03:43:16;;;;;;;;;;;24.90;40.30;;;;;;1500008;77;1628;-60
2023/07/09 03:45:18;;;;;;;;;;;24.90;40.30;;;;;;1484552;78;554;-59
2023/07/09 03:47:20;;;;;;;;;;;24.90;40.30;;;;;;1514190;77;763;-58
2023/07/09 03:49:22;;;;;;;;;;;24.90;40.30;;;;;;1503537;77;1186;-59
2023/07/09 03:51:24;;;;;;;;;;;24.90;40.30;;;;;;1504185;77;759;-59
2023/07/09 03:53:25;;;;;;;;;;;24.90;40.40;;;;;;1509352;77;692;-59
2023/07/09 03:55:27;;;;;;;;;;;24.90;40.40;;;;;;1485821;78;781;-59
2023/07/09 03:57:30;;;;;;;;;;;25.00;40.40;;;;;;1514552;77;1364;-59
2023/07/09 03:59:31;;;;;;;;;;;24.90;40.40;;;;;;1468877;79;1963;-59
2023/07/09 04:01:33;;;;;;;;;;;24.80;40.30;;;;;;1473158;79;700;-58
2023/07/09 04:03:35;;;;;;;;;;;24.90;40.50;;;;;;1501258;77;825;-58
2023/07/09 04:05:37;;;;;;;;;;;24.90;40.50;;;;;;1478791;79;769;-59
2023/07/09 04:07:39;;;;;;;;;;;24.90;40.50;;;;;;1475479;79;790;-60
2023/07/09 04:09:41;;;;;;;;;;;24.90;40.40;;;;;;1493270;78;1161;-60
2023/07/09 04:11:43;;;;;;;;;;;24.90;40.40;;;;;;1483703;79;1530;-59
2023/07/09 04:13:44;;;;;;;;;;;24.90;40.40;;;;;;1474720;78;710;-58
2023/07/09 04:15:46;;;;;;;;;;;24.90;40.50;;;;;;1475176;79;704;-59
2023/07/09 04:17:48;;;;;;;;;;;24.90;40.50;;;;;;1507613;77;718;-58
2023/07/09 04:19:51;;;;;;;;;;;24.90;40.50;;;;;;1500598;78;1999;-58
2023/07/09 04:21:52;;;;;;;;;;;24.90;40.40;;;;;;1489069;78;728;-59
2023/07/09 04:23:55;;;;;;;;;;;24.90;40.50;;;;;;1472576;78;749;-60
2023/07/09 04:25:57;;;;;;;;;;;24.90;40.40;;;;;;1472157;78;1544;-59
2023/07/09 04:27:59;;;;;;;;;;;24.90;40.40;;;;;;1495437;78;774;-59
2023/07/09 04:30:02;;;;;;;;;;;24.90;40.50;;;;;;1491295;78;1128;-60
2023/07/09 04:32:04;;;;;;;;;;;24.90;40.50;;;;;;1473788;78;873;-59
2023/07/09 04:34:06;;;;;;;;;;;24.90;40.50;;;;;;1488575;79;747;-59
2023/07/09 04:36:08;;;;;;;;;;;24.90;40.50;;;;;;1486518;79;596;-59
2023/07/09 04:38:10;;;;;;;;;;;24.90;40.50;;;;;;1481686;79;1098;-59
2023/07/09 04:40:12;;;;;;;;;;;24.90;40.50;;;;;;1482567;80;1946;-58
2023/07/09 04:42:15;;;;;;;;;;;24.90;40.50;;;;;;1482466;79;753;-59
2023/07/09 04:44:17;;;;;;;;;;;24.90;40.50;;;;;;1497146;77;708;-58
2023/07/09 04:46:19;;;;;;;;;;;24.90;40.60;;;;;;1487889;78;750;-58
2023/07/09 04:48:20;;;;;;;;;;;24.90;40.60;;;;;;1496942;77;1137;-59
2023/07/09 04:50:22;;;;;;;;;;;24.80;40.50;;;;;;1491690;78;718;-59
2023/07/09 04:52:24;;;;;;;;;;;24.80;40.50;;;;;;1477659;78;746;-58
2023/07/09 04:54:26;;;;;;;;;;;24.90;40.70;;;;;;1495059;78;1711;-59
2023/07/09 04:56:29;;;;;;;;;;;24.80;40.60;;;;;;1494026;78;777;-58
2023/07/09 04:58:31;;;;;;;;;;;24.80;40.60;;;;;;1502915;77;1228;-58
2023/07/09 05:00:33;;;;;;;;;;;24.90;40.70;;;;;;1490900;79;1941;-58
2023/07/09 05:02:35;;;;;;;;;;;24.90;40.70;;;;;;1482312;78;688;-58
2023/07/09 05:04:37;;;;;;;;;;;24.90;40.70;;;;;;1483023;78;713;-57
2023/07/09 05:06:39;;;;;;;;;;;24.80;40.60;;;;;;1499402;77;688;-58
2023/07/09 05:08:41;;;;;;;;;;;24.80;40.60;;;;;;1482243;79;1534;-58
2023/07/09 05:10:44;;;;;;;;;;;24.80;40.60;;;;;;1490243;78;755;-58
2023/07/09 05:12:50;;;;;;;;;;;24.90;40.70;;;;;;1491354;78;675;-58
2023/07/09 05:14:52;;;;;;;;;;;24.90;40.70;;;;;;1505633;77;1763;-58
2023/07/09 05:16:54;;;;;;;;;;;24.90;40.60;;;;;;1500158;78;667;-59
2023/07/09 05:18:56;;;;;;;;;;;24.90;40.60;;;;;;1507147;78;1132;-58
2023/07/09 05:20:57;;;;;;;;;;;24.90;40.70;;;;;;1488332;78;1929;-58
2023/07/09 05:22:59;;;;;;;;;;;24.90;40.70;;;;;;1507339;78;1490;-58
2023/07/09 05:25:01;;;;;;;;;;;24.90;40.70;;;;;;1509989;77;757;-58
2023/07/09 05:27:03;;;;;;;;;;;24.90;40.60;;;;;;1482061;79;796;-58
2023/07/09 05:29:05;;;;;;;;;;;24.90;40.70;;;;;;1473001;78;1148;-58
2023/07/09 05:31:07;;;;;;;;;;;24.90;40.60;;;;;;1489673;78;761;-58
2023/07/09 05:33:09;;;;;;;;;;;24.90;40.60;;;;;;1514110;77;779;-58
2023/07/09 05:35:11;;;;;;;;;;;24.90;40.60;;;;;;1510994;77;763;-58
2023/07/09 05:37:13;;;;;;;;;;;24.90;40.50;;;;;;1499801;77;1577;-57
2023/07/09 05:39:16;;;;;;;;;;;24.90;40.60;;;;;;1478241;78;1139;-58
2023/07/09 05:41:18;;;;;;;;;;;24.90;40.50;;;;;;1516589;77;1918;-58
2023/07/09 05:43:19;;;;;;;;;;;24.90;40.50;;;;;;1514507;77;771;-58
2023/07/09 05:45:21;;;;;;;;;;;25.00;40.50;;;;;;1494616;79;745;-56
2023/07/09 05:47:23;;;;;;;;;;;24.90;40.50;;;;;;1476145;79;773;-57
2023/07/09 05:49:25;;;;;;;;;;;24.90;40.50;;;;;;1482867;79;1149;-58
2023/07/09 05:51:27;;;;;;;;;;;24.90;40.50;;;;;;1476738;79;1640;-59
2023/07/09 05:53:29;;;;;;;;;;;25.00;40.60;;;;;;1470578;79;827;-58
2023/07/09 05:55:32;;;;;;;;;;;25.00;40.60;;;;;;1479788;79;814;-58
2023/07/09 05:57:33;;;;;;;;;;;24.90;40.70;;;;;;1477553;78;696;-59
2023/07/09 05:59:35;;;;;;;;;;;25.00;40.60;;;;;;1462201;78;1146;-58
2023/07/09 06:01:37;;;;;;;;;;;24.90;40.70;;;;;;1482164;78;1939;-58
2023/07/09 06:03:39;;;;;;;;;;;24.90;40.70;;;;;;1497526;79;747;-58
2023/07/09 06:05:41;;;;;;;;;;;24.90;40.70;;;;;;1475727;78;1534;-57
2023/07/09 06:07:43;;;;;;;;;;;25.00;40.70;;;;;;1486238;78;737;-58
2023/07/09 06:09:48;;;;;;;;;;;25.00;40.80;;;;;;1469859;78;1182;-58
2023/07/09 06:11:50;;;;;;;;;;;24.90;40.80;;;;;;1492670;78;716;-57
2023/07/09 06:13:52;;;;;;;;;;;24.90;40.90;;;;;;1495514;79;724;-58
2023/07/09 06:15:55;;;;;;;;;;;24.90;40.90;;;;;;1507068;77;717;-58
2023/07/09 06:17:57;;;;;;;;;;;25.00;40.90;;;;;;1493908;79;1552;-58
2023/07/09 06:19:58;;;;;;;;;;;25.00;40.90;;;;;;1479718;80;1118;-58
2023/07/09 06:22:00;;;;;;;;;;;25.00;40.80;;;;;;1487061;80;1955;-58
2023/07/09 06:24:02;;;;;;;;;;;25.00;40.90;;;;;;1485181;80;738;-57
2023/07/09 06:26:04;;;;;;;;;;;25.00;40.90;;;;;;1477414;79;763;-58
2023/07/09 06:28:06;;;;;;;;;;;25.00;41.00;;;;;;1472120;78;750;-58
2023/07/09 06:30:09;;;;;;;;;;;24.90;41.10;;;;;;1498666;78;1116;-58
2023/07/09 06:32:10;;;;;;;;;;;25.00;41.00;;;;;;1483754;78;1511;-58
2023/07/09 06:34:12;;;;;;;;;;;24.90;41.00;;;;;;1500076;78;780;-57
2023/07/09 06:36:14;;;;;;;;;;;25.00;41.00;;;;;;1503126;79;731;-57
2023/07/09 06:38:16;;;;;;;;;;;25.00;41.00;;;;;;1499403;77;1159;-58
2023/07/09 06:40:18;;;;;;;;;;;25.00;41.00;;;;;;1495518;78;730;-57
2023/07/09 06:42:20;;;;;;;;;;;25.00;41.10;;;;;;1499357;77;1947;-58
2023/07/09 06:44:22;;;;;;;;;;;25.00;41.20;;;;;;1514147;77;745;-57
2023/07/09 06:46:24;;;;;;;;;;;25.00;41.20;;;;;;1503907;77;1315;-58
2023/07/09 06:48:27;;;;;;;;;;;25.00;41.20;;;;;;1487424;79;1140;-58
2023/07/09 06:50:29;;;;;;;;;;;25.00;41.30;;;;;;1490336;78;722;-59
2023/07/09 06:52:30;;;;;;;;;;;25.00;41.40;;;;;;1473360;78;779;-59
2023/07/09 06:54:32;;;;;;;;;;;25.00;41.50;;;;;;1484072;78;708;-59
2023/07/09 06:56:34;;;;;;;;;;;24.90;41.40;;;;;;1492912;77;700;-58
2023/07/09 06:58:36;;;;;;;;;;;25.00;41.40;;;;;;1502788;77;1159;-58
2023/07/09 07:00:38;;;;;;;;;;;25.00;41.40;;;;;;1506741;77;1942;-58
2023/07/09 07:02:40;;;;;;;;;;;25.00;41.50;;;;;;1500503;77;738;-58
2023/07/09 07:04:42;;;;;;;;;;;25.00;41.50;;;;;;1489850;77;675;-56
2023/07/09 07:06:45;;;;;;;;;;;25.10;41.60;;;;;;1478075;78;754;-58
2023/07/09 07:08:46;;;;;;;;;;;25.00;41.60;;;;;;1499257;78;1114;-58
2023/07/09 07:10:48;;;;;;;;;;;25.00;41.60;;;;;;1493081;78;769;-58
2023/07/09 07:12:50;;;;;;;;;;;25.00;41.70;;;;;;1496032;78;729;-58
2023/07/09 07:14:53;;;;;;;;;;;25.10;41.80;;;;;;1491909;78;1316;-59
2023/07/09 07:16:57;;;;;;;;;;;25.10;42.00;;;;;;1511554;77;767;-59
2023/07/09 07:18:59;;;;;;;;;;;25.10;41.80;;;;;;1503866;77;1183;-57
2023/07/09 07:21:01;;;;;;;;;;;25.00;41.90;;;;;;1474354;80;1963;-59
2023/07/09 07:23:03;;;;;;;;;;;25.00;42.00;;;;;;1474200;78;750;-59
2023/07/09 07:25:05;;;;;;;;;;;25.00;42.00;;;;;;1503802;77;703;-58
2023/07/09 07:27:08;;;;;;;;;;;25.00;41.90;;;;;;1506725;77;741;-58
2023/07/09 07:29:10;;;;;;;;;;;25.10;42.00;;;;;;1511270;77;1651;-57
2023/07/09 07:31:12;;;;;;;;;;;25.10;42.10;;;;;;1507581;77;732;-59
2023/07/09 07:33:14;;;;;;;;;;;25.10;42.00;;;;;;1504871;77;748;-59
2023/07/09 07:35:17;;;;;;;;;;;25.10;42.10;;;;;;1486858;78;700;-58
2023/07/09 07:37:23;;;;;;;;;;;25.10;42.10;;;;;;1502168;77;732;-58
2023/07/09 07:39:22;;;;;;;;;;;25.10;42.10;;;;;;1473075;78;1345;-59
2023/07/09 07:41:24;;;;;;;;;;;25.10;42.10;;;;;;1481801;79;1927;-57
2023/07/09 07:43:26;;;;;;;;;;;25.10;42.10;;;;;;1482571;78;1537;-58
2023/07/09 07:45:28;;;;;;;;;;;25.10;42.10;;;;;;1502688;77;819;-58
2023/07/09 07:47:30;;;;;;;;;;;25.10;42.30;;;;;;1504707;77;737;-58
2023/07/09 07:49:32;;;;;;;;;;;25.10;42.40;;;;;;1507458;77;1122;-58
2023/07/09 07:51:34;;;;;;;;;;;25.10;42.30;;;;;;1504567;77;677;-57
2023/07/09 07:53:35;;;;;;;;;;;25.20;42.50;;;;;;1499697;77;741;-57
2023/07/09 07:55:38;;;;;;;;;;;25.10;42.60;;;;;;1507637;77;731;-58
2023/07/09 07:57:39;;;;;;;;;;;25.20;42.60;;;;;;1497519;77;1370;-57
2023/07/09 07:59:41;;;;;;;;;;;25.20;42.60;;;;;;1497620;77;1112;-58
2023/07/09 08:01:43;;;;;;;;;;;25.20;42.60;;;;;;1500377;77;1937;-58
2023/07/09 08:03:45;;;;;;;;;;;25.20;42.60;;;;;;1500595;77;699;-58
2023/07/09 08:05:48;;;;;;;;;;;25.10;42.60;;;;;;1500440;77;741;-58
2023/07/09 08:07:50;;;;;;;;;;;25.20;42.60;;;;;;1507782;77;748;-58
2023/07/09 08:09:52;;;;;;;;;;;25.20;42.60;;;;;;1494050;77;1173;-58
2023/07/09 08:11:54;;;;;;;;;;;25.20;42.60;;;;;;1493027;78;1509;-60
2023/07/09 08:13:56;;;;;;;;;;;25.10;42.60;;;;;;1486271;78;862;-58
2023/07/09 08:15:58;;;;;;;;;;;25.20;42.60;;;;;;1487074;78;645;-58
2023/07/09 08:18:00;;;;;;;;;;;25.20;42.60;;;;;;1472622;78;631;-57
2023/07/09 08:20:02;;;;;;;;;;;25.20;42.60;;;;;;1506202;77;1135;-61
2023/07/09 08:22:03;;;;;;;;;;;25.10;42.60;;;;;;1500383;77;1926;-58
2023/07/09 08:24:06;;;;;;;;;;;25.10;42.60;;;;;;1497224;78;789;-59
2023/07/09 08:26:08;;;;;;;;;;;25.20;42.60;;;;;;1478064;78;1630;-58
2023/07/09 08:28:10;;;;;;;;;;;25.10;42.50;;;;;;1478319;78;623;-58
2023/07/09 08:30:12;;;;;;;;;;;25.20;42.50;;;;;;1473488;79;865;-58
2023/07/09 08:32:14;;;;;;;;;;;25.30;42.40;;;;;;1503534;79;817;-58
2023/07/09 08:34:15;;;;;;;;;;;25.20;42.30;;;;;;1481963;78;703;-58
2023/07/09 08:36:17;;;;;;;;;;;25.20;42.30;;;;;;1500675;77;673;-58
2023/07/09 08:38:19;;;;;;;;;;;25.20;42.20;;;;;;1506137;78;1178;-57
2023/07/09 08:40:21;;;;;;;;;;;25.20;42.20;;;;;;1509507;78;1679;-58
2023/07/09 08:42:34;;;;;;;;;;;25.20;42.20;;;;;;1502754;77;1939;-58
2023/07/09 08:44:54;;;;;;;;;;;25.20;42.10;;;;;;1497657;78;787;-58
2023/07/09 08:47:08;;;;;;;;;;;25.20;42.20;;;;;;1499872;77;766;-58
2023/07/09 08:49:15;;;;;;;;;;;25.20;42.20;;;;;;1503864;77;1097;-58
2023/07/09 08:51:21;;;;;;;;;;;25.20;42.10;;;;;;1500123;77;707;-58
2023/07/09 08:53:34;;;;;;;;;;;25.30;41.90;;;;;;1490458;78;1522;-58
2023/07/09 08:55:40;;;;;;;;;;;25.30;41.90;;;;;;1469747;78;962;-58
2023/07/09 08:57:40;;;;;;;;;;;25.30;41.90;;;;;;1479582;78;1696;-58
2023/07/09 08:59:42;;;;;;;;;;;25.30;41.80;;;;;;1496497;77;1122;-58
2023/07/09 09:01:46;;;;;;;;;;;25.40;41.70;;;;;;1504667;77;1929;-58
2023/07/09 09:03:51;;;;;;;;;;;25.30;41.70;;;;;;1496762;77;1859;-58
2023/07/09 09:05:53;;;;;;;;;;;25.40;41.60;;;;;;1501875;77;684;-58
2023/07/09 09:08:13;;;;;;;;;;;25.30;41.70;;;;;;1505459;77;1586;-58
2023/07/09 09:10:17;;;;;;;;;;;25.30;41.60;;;;;;1504576;77;721;-58
2023/07/09 09:12:20;;;;;;;;;;;25.30;41.50;;;;;;1491296;77;813;-58
2023/07/09 09:14:24;;;;;;;;;;;25.30;41.60;;;;;;1500865;77;719;-58
2023/07/09 09:16:28;;;;;;;;;;;25.30;41.50;;;;;;1506123;77;705;-59
2023/07/09 09:18:30;;;;;;;;;;;25.30;41.50;;;;;;1491090;77;1844;-58
2023/07/09 09:20:32;;;;;;;;;;;25.30;41.50;;;;;;1495574;77;738;-59
2023/07/09 09:22:38;;;;;;;;;;;25.30;41.50;;;;;;1506963;77;1938;-57
2023/07/09 09:24:59;;;;;;;;;;;25.30;41.50;;;;;;1489336;79;1873;-58
2023/07/09 09:27:01;;;;;;;;;;;25.30;41.40;;;;;;1505135;77;740;-58
2023/07/09 09:29:04;;;;;;;;;;;25.30;41.40;;;;;;1513368;77;1142;-58
2023/07/09 09:31:08;;;;;;;;;;;25.30;41.50;;;;;;1468908;78;1661;-59
2023/07/09 09:33:11;;;;;;;;;;;25.30;41.30;;;;;;1505478;78;792;-58
2023/07/09 09:35:19;;;;;;;;;;;25.30;41.30;;;;;;1510102;77;1520;-59
2023/07/09 09:37:22;;;;;;;;;;;25.30;41.30;;;;;;1501407;78;1576;-58
2023/07/09 09:39:25;;;;;;;;;;;25.30;41.30;;;;;;1507272;78;2105;-58
2023/07/09 09:41:28;;;;;;;;;;;25.30;41.40;;;;;;1508954;78;1940;-58
2023/07/09 09:43:32;;;;;;;;;;;25.30;41.30;;;;;;1503640;78;1990;-58
2023/07/09 09:45:34;;;;;;;;;;;25.30;41.20;;;;;;1507827;78;663;-58
2023/07/09 09:47:36;;;;;;;;;;;25.40;41.10;;;;;;1507056;78;756;-58
2023/07/09 09:49:41;;;;;;;;;;;25.30;41.10;;;;;;1481798;78;1559;-58
2023/07/09 09:51:44;;;;;;;;;;;25.40;41.10;;;;;;1479738;78;724;-57
2023/07/09 09:53:48;;;;;;;;;;;25.40;41.10;;;;;;1500439;78;761;-58
2023/07/09 09:55:51;;;;;;;;;;;25.30;41.00;;;;;;1495391;77;1086;-58
2023/07/09 09:57:53;;;;;;;;;;;25.40;40.90;;;;;;1501246;78;785;-58
2023/07/09 09:59:55;;;;;;;;;;;25.30;40.90;;;;;;1502807;77;1141;-58
2023/07/09 10:01:58;;;;;;;;;;;25.40;40.80;;;;;;1477099;78;1951;-58
2023/07/09 10:04:01;;;;;;;;;;;25.40;40.80;;;;;;1474739;78;1555;-58
2023/07/09 10:06:05;;;;;;;;;;;25.40;40.80;;;;;;1489225;78;715;-58
2023/07/09 10:08:09;;;;;;;;;;;25.40;40.60;;;;;;1496772;78;723;-58
2023/07/09 10:10:14;;;;;;;;;;;25.40;40.50;;;;;;1482658;78;779;-57
2023/07/09 10:12:21;;;;;;;;;;;25.40;40.50;;;;;;1508882;77;807;-57
2023/07/09 10:14:33;;;;;;;;;;;25.40;40.50;;;;;;1488915;78;1899;-60
2023/07/09 10:16:37;;;;;;;;;;;25.40;40.50;;;;;;1424489;82;1084;-58
2023/07/09 10:18:54;;;;;;;;;;;25.40;40.60;;;;;;1482914;78;1729;-59
2023/07/09 10:21:15;;;;;;;;;;;25.30;40.70;;;;;;1491365;78;724;-57
2023/07/09 10:23:19;;;;;;;;;;;25.30;40.70;;;;;;1499690;78;1926;-58
2023/07/09 10:25:22;;;;;;;;;;;25.30;40.70;;;;;;1483790;78;1753;-59
2023/07/09 10:27:26;;;;;;;;;;;25.30;40.60;;;;;;1506286;77;693;-58
2023/07/09 10:29:29;;;;;;;;;;;25.30;40.60;;;;;;1504671;79;1132;-58
2023/07/09 10:31:33;;;;;;;;;;;25.40;40.50;;;;;;1507531;77;1585;-58
2023/07/09 10:33:36;;;;;;;;;;;25.40;40.50;;;;;;1513309;77;656;-58
2023/07/09 10:35:42;;;;;;;;;;;25.40;40.50;;;;;;1476339;78;1938;-57
2023/07/09 10:37:48;;;;;;;;;;;25.40;40.50;;;;;;1490042;77;1774;-59
2023/07/09 10:39:52;;;;;;;;;;;25.40;40.50;;;;;;1507704;77;2189;-58
2023/07/09 10:41:54;;;;;;;;;;;25.40;40.50;;;;;;1505439;77;1934;-58
2023/07/09 10:44:05;;;;;;;;;;;25.40;40.50;;;;;;1515310;77;666;-57
2023/07/09 10:46:08;;;;;;;;;;;25.40;40.50;;;;;;1506329;77;1539;-58
2023/07/09 10:48:11;;;;;;;;;;;25.30;40.50;;;;;;1506561;77;1442;-58
2023/07/09 10:50:15;;;;;;;;;;;25.30;40.40;;;;;;1503145;77;715;-59
2023/07/09 10:52:21;;;;;;;;;;;25.30;40.50;;;;;;1502891;77;1841;-58
2023/07/09 10:54:33;;;;;;;;;;;25.40;40.50;;;;;;1504629;77;1936;-58
2023/07/09 10:56:38;;;;;;;;;;;25.40;40.50;;;;;;1501775;77;937;-57
2023/07/09 10:58:41;;;;;;;;;;;25.30;40.60;;;;;;1474372;78;1074;-58
2023/07/09 11:00:43;;;;;;;;;;;25.40;40.50;;;;;;1473088;78;1542;-58
2023/07/09 11:02:45;;;;;;;;;;;25.40;40.60;;;;;;1492640;77;1945;-59
2023/07/09 11:04:51;;;;;;;;;;;25.40;40.60;;;;;;1489973;78;772;-57
2023/07/09 11:06:54;;;;;;;;;;;25.40;40.50;;;;;;1497765;78;715;-57
2023/07/09 11:08:56;;;;;;;;;;;25.40;40.50;;;;;;1511347;77;1160;-58
2023/07/09 11:10:59;;;;;;;;;;;25.40;40.60;;;;;;1503068;77;663;-59
2023/07/09 11:13:12;;;;;;;;;;;25.40;40.50;;;;;;1492868;77;785;-59
2023/07/09 11:15:16;;;;;;;;;;;25.40;40.40;;;;;;1505680;77;749;-57
2023/07/09 11:17:21;;;;;;;;;;;25.40;40.40;;;;;;1482689;79;800;-57
2023/07/09 11:19:23;;;;;;;;;;;25.40;40.40;;;;;;1482302;79;1161;-58
2023/07/09 11:21:25;;;;;;;;;;;25.40;40.40;;;;;;1508434;77;750;-58
2023/07/09 11:23:27;;;;;;;;;;;25.40;40.40;;;;;;1519057;77;1946;-58
2023/07/09 11:25:33;;;;;;;;;;;25.40;40.40;;;;;;1510882;77;656;-58
2023/07/09 11:27:37;;;;;;;;;;;25.40;40.40;;;;;;1504625;77;2112;-60
2023/07/09 11:29:40;;;;;;;;;;;25.50;40.40;;;;;;1501175;77;2268;-58
2023/07/09 11:31:49;;;;;;;;;;;25.50;40.30;;;;;;1497783;78;891;-60
2023/07/09 11:33:47;;;;;;;;;;;25.40;40.40;;;;;;1496088;77;1588;-60
2023/07/09 11:35:50;;;;;;;;;;;25.40;40.30;;;;;;1505731;77;757;-58
2023/07/09 11:37:55;;;;;;;;;;;25.40;40.40;;;;;;1505076;77;782;-59
2023/07/09 11:39:57;;;;;;;;;;;25.50;40.30;;;;;;1503651;77;1132;-58
2023/07/09 11:41:59;;;;;;;;;;;25.50;40.40;;;;;;1490214;79;1339;-60
2023/07/09 11:44:05;;;;;;;;;;;25.40;40.50;;;;;;1513882;77;1949;-58
2023/07/09 11:46:14;;;;;;;;;;;25.40;40.40;;;;;;1489695;77;1800;-60
2023/07/09 11:48:20;;;;;;;;;;;25.40;40.40;;;;;;1505586;77;1166;-58
2023/07/09 11:50:27;;;;;;;;;;;25.40;40.50;;;;;;1506971;77;2048;-59
2023/07/09 11:52:31;;;;;;;;;;;25.40;40.50;;;;;;1506148;77;1815;-59
2023/07/09 11:54:36;;;;;;;;;;;25.40;40.30;;;;;;1498497;77;1761;-58
2023/07/09 11:56:38;;;;;;;;;;;25.40;40.40;;;;;;1493392;77;1581;-60
2023/07/09 11:58:50;;;;;;;;;;;25.40;40.40;;;;;;1494847;77;1141;-59
2023/07/09 12:00:55;;;;;;;;;;;25.40;40.30;;;;;;1500063;77;795;-59
2023/07/09 12:02:57;;;;;;;;;;;25.40;40.30;;;;;;1498902;77;1945;-59
2023/07/09 12:04:59;;;;;;;;;;;25.50;40.20;;;;;;1506470;77;741;-60
2023/07/09 12:07:01;;;;;;;;;;;25.50;40.20;;;;;;1479123;78;753;-59
2023/07/09 12:09:04;;;;;;;;;;;25.50;40.20;;;;;;1500297;77;1183;-60
2023/07/09 12:11:05;;;;;;;;;;;25.50;40.00;;;;;;1481993;79;1689;-59